Time;durP1;ratioP1;P1;durP2;ratioP2;P2;SDS_P1;SDS_P2;PMS_P1;PMS_P2;Temp;Humidity;BMP_temperature;BMP_pressure;BME280_temperature;BME280_humidity;BME280_pressure;Samples;Min_cycle;Max_cycle;Signal;HPM_P1;HPM_P2
2023/03/03 00:02:21;;;;;;;18.37;5.60;;;0.40;99.90;;;;;;5052368;28;20266;-81
2023/03/03 00:04:46;;;;;;;10.30;6.13;;;0.50;99.90;;;;;;5035541;28;20189;-82
2023/03/03 00:07:14;;;;;;;15.33;6.20;;;0.50;99.90;;;;;;5052651;28;20454;-82
2023/03/03 00:09:39;;;;;;;16.27;7.50;;;0.50;99.90;;;;;;5019022;28;20202;-82
2023/03/03 00:12:29;;;;;;;30.60;11.63;;;0.50;99.90;;;;;;5035108;28;20253;-82
2023/03/03 00:14:55;;;;;;;21.37;11.93;;;0.60;99.90;;;;;;5052682;28;20214;-82
2023/03/03 00:17:29;;;;;;;15.57;8.83;;;0.50;99.90;;;;;;5052860;28;20182;-82
2023/03/03 00:19:55;;;;;;;21.07;9.77;;;0.50;99.90;;;;;;5034715;28;20262;-83
2023/03/03 00:22:50;;;;;;;40.27;11.63;;;0.50;99.90;;;;;;5052953;28;20672;-82
2023/03/03 00:25:29;;;;;;;24.20;7.90;;;0.50;99.90;;;;;;5031546;28;20218;-82
2023/03/03 00:28:00;;;;;;;20.43;7.83;;;0.50;99.90;;;;;;5052978;28;20191;-82
2023/03/03 00:30:26;;;;;;;12.40;6.50;;;0.60;99.90;;;;;;5035716;28;20190;-82
2023/03/03 00:32:55;;;;;;;19.97;8.37;;;0.50;99.90;;;;;;5052811;28;20176;-82
2023/03/03 00:35:29;;;;;;;15.60;6.67;;;0.50;99.90;;;;;;5034735;28;20297;-82
2023/03/03 00:38:00;;;;;;;14.37;6.73;;;0.50;99.90;;;;;;5052726;28;20183;-82
2023/03/03 00:40:37;;;;;;;15.80;7.83;;;0.60;99.90;;;;;;5052533;28;20182;-82
2023/03/03 00:43:32;;;;;;;17.67;6.17;;;0.60;99.90;;;;;;5052629;28;20183;-82
2023/03/03 00:45:58;;;;;;;14.00;7.03;;;0.50;99.90;;;;;;5052545;28;20596;-81
2023/03/03 00:48:27;;;;;;;10.97;6.13;;;0.60;99.90;;;;;;5034741;28;20207;-81
2023/03/03 00:51:00;;;;;;;13.20;7.27;;;0.50;99.90;;;;;;5034620;28;20259;-82
2023/03/03 00:53:28;;;;;;;21.03;8.27;;;0.50;99.90;;;;;;5034579;28;20180;-82
2023/03/03 00:55:55;;;;;;;19.10;9.10;;;0.60;99.90;;;;;;5052691;28;20208;-83
2023/03/03 00:58:22;;;;;;;14.53;6.77;;;0.60;99.90;;;;;;5052220;28;20247;-82
2023/03/03 01:00:53;;;;;;;10.40;6.30;;;0.50;99.90;;;;;;5018027;28;20245;-82
2023/03/03 01:03:21;;;;;;;14.97;5.97;;;0.60;99.90;;;;;;5052272;28;20227;-83
2023/03/03 01:05:48;;;;;;;12.27;6.97;;;0.60;99.90;;;;;;5052261;28;20199;-82
2023/03/03 01:08:14;;;;;;;22.90;9.97;;;0.60;99.90;;;;;;5052291;28;20172;-82
2023/03/03 01:10:51;;;;;;;15.50;8.40;;;0.60;99.90;;;;;;5034846;28;20677;-82
2023/03/03 01:13:20;;;;;;;13.87;6.20;;;0.60;99.90;;;;;;5052440;28;20176;-82
2023/03/03 01:15:46;;;;;;;12.27;6.30;;;0.60;99.90;;;;;;5055878;28;20290;-82
2023/03/03 01:18:12;;;;;;;14.00;6.93;;;0.60;99.90;;;;;;5055725;28;20267;-82
2023/03/03 01:20:39;;;;;;;20.53;8.03;;;0.60;99.90;;;;;;5038217;28;20610;-82
2023/03/03 01:23:05;;;;;;;15.10;7.00;;;0.60;99.90;;;;;;5055950;28;20218;-84
2023/03/03 01:25:31;;;;;;;10.50;6.03;;;0.60;99.90;;;;;;5038132;28;20632;-82
2023/03/03 01:27:57;;;;;;;16.57;7.73;;;0.60;99.90;;;;;;5037974;28;20181;-83
2023/03/03 01:30:25;;;;;;;15.97;8.00;;;0.60;99.90;;;;;;5055543;28;20234;-82
2023/03/03 01:32:50;;;;;;;14.27;6.83;;;0.60;99.90;;;;;;5037842;28;20186;-81
2023/03/03 01:35:17;;;;;;;20.83;7.90;;;0.60;99.90;;;;;;5037674;28;20203;-82
2023/03/03 01:37:42;;;;;;;11.27;6.50;;;0.60;99.90;;;;;;5038174;28;20184;-81
2023/03/03 01:40:17;;;;;;;14.80;8.07;;;0.60;99.90;;;;;;5037698;28;20199;-82
2023/03/03 01:42:43;;;;;;;10.87;5.87;;;0.60;99.90;;;;;;5055819;28;20182;-82
2023/03/03 01:45:30;;;;;;;20.07;6.37;;;0.60;99.90;;;;;;5055369;28;20173;-82
2023/03/03 01:48:05;;;;;;;11.17;7.60;;;0.60;99.90;;;;;;5055903;28;20175;-81
2023/03/03 01:50:34;;;;;;;10.80;7.87;;;0.60;99.90;;;;;;5055278;28;20639;-82
2023/03/03 01:53:03;;;;;;;14.17;6.67;;;0.70;99.90;;;;;;5055475;28;20177;-82
2023/03/03 01:55:35;;;;;;;17.50;8.37;;;0.70;99.90;;;;;;5055419;28;20226;-82
2023/03/03 01:58:28;;;;;;;15.60;7.27;;;0.60;99.90;;;;;;5055193;28;20265;-82
2023/03/03 02:00:59;;;;;;;14.73;8.50;;;0.70;99.90;;;;;;5054877;28;20516;-82
2023/03/03 02:03:26;;;;;;;17.43;8.27;;;0.70;99.90;;;;;;5055067;28;20185;-82
2023/03/03 02:05:56;;;;;;;13.67;6.00;;;0.70;99.90;;;;;;5055373;28;20179;-82
2023/03/03 02:08:29;;;;;;;12.07;6.03;;;0.70;99.90;;;;;;5054932;28;20171;-82
2023/03/03 02:10:56;;;;;;;12.57;7.47;;;0.80;99.90;;;;;;5054987;28;20159;-82
2023/03/03 02:13:22;;;;;;;15.80;7.83;;;0.80;99.90;;;;;;5020835;28;20604;-82
2023/03/03 02:15:47;;;;;;;16.57;6.97;;;0.70;99.90;;;;;;5055101;28;20291;-82
2023/03/03 02:18:16;;;;;;;18.33;7.40;;;0.80;99.90;;;;;;5036993;28;20185;-82
2023/03/03 02:21:09;;;;;;;14.70;7.10;;;0.70;99.90;;;;;;5055024;28;20206;-82
2023/03/03 02:23:56;;;;;;;12.80;7.53;;;0.70;99.90;;;;;;5037185;28;20175;-82
2023/03/03 02:26:24;;;;;;;13.37;7.40;;;0.60;99.90;;;;;;5036132;28;20179;-82
2023/03/03 02:28:51;;;;;;;19.13;8.13;;;0.70;99.90;;;;;;5056758;28;20196;-82
2023/03/03 02:31:24;;;;;;;18.40;8.37;;;0.70;99.90;;;;;;5055538;28;20282;-82
2023/03/03 02:33:52;;;;;;;20.40;8.00;;;0.80;99.90;;;;;;5036709;28;20520;-83
2023/03/03 02:36:31;;;;;;;19.17;8.03;;;0.70;99.90;;;;;;5054458;28;20169;-82
2023/03/03 02:39:14;;;;;;;12.97;8.30;;;0.60;99.90;;;;;;5054810;28;20175;-82
2023/03/03 02:41:46;;;;;;;24.10;10.40;;;0.80;99.90;;;;;;5036633;28;20171;-82
2023/03/03 02:44:17;;;;;;;15.87;7.97;;;0.70;99.90;;;;;;5054427;28;20180;-82
2023/03/03 02:46:48;;;;;;;26.90;7.23;;;0.70;99.90;;;;;;5054329;28;20169;-82
2023/03/03 02:49:17;;;;;;;15.13;8.87;;;0.70;99.90;;;;;;5036623;28;20175;-82
2023/03/03 02:51:43;;;;;;;16.60;8.47;;;0.60;99.90;;;;;;5036431;28;20179;-82
2023/03/03 02:54:11;;;;;;;13.23;7.47;;;0.60;99.90;;;;;;5054436;28;20589;-82
2023/03/03 02:56:37;;;;;;;12.60;7.43;;;1.90;99.90;;;;;;5053971;28;20176;-82
2023/03/03 02:59:03;;;;;;;14.03;9.00;;;0.70;99.90;;;;;;5020083;28;20179;-82
2023/03/03 03:01:30;;;;;;;25.60;7.07;;;0.70;99.90;;;;;;5053755;28;20223;-82
2023/03/03 03:03:57;;;;;;;17.43;7.67;;;0.70;99.90;;;;;;5054363;28;20178;-82
2023/03/03 03:06:23;;;;;;;17.77;7.87;;;0.70;99.90;;;;;;5036255;28;20184;-82
2023/03/03 03:08:49;;;;;;;13.33;7.00;;;0.70;99.90;;;;;;5053992;28;20172;-83
2023/03/03 03:11:14;;;;;;;24.87;11.53;;;0.80;99.90;;;;;;5035977;28;20647;-82
2023/03/03 03:13:40;;;;;;;17.90;9.33;;;0.90;99.90;;;;;;5036190;28;20239;-83
2023/03/03 03:16:06;;;;;;;17.27;8.00;;;0.80;99.90;;;;;;5054063;28;20250;-83
2023/03/03 03:18:32;;;;;;;18.30;8.27;;;0.80;99.90;;;;;;5053803;28;20183;-83
2023/03/03 03:21:05;;;;;;;12.70;7.47;;;0.80;99.90;;;;;;5036099;28;20721;-83
2023/03/03 03:23:31;;;;;;;18.80;9.07;;;0.80;99.90;;;;;;5035898;28;20180;-84
2023/03/03 03:25:56;;;;;;;16.43;9.30;;;0.80;99.90;;;;;;5035735;28;20179;-83
2023/03/03 03:28:22;;;;;;;18.30;8.00;;;0.80;99.90;;;;;;5035768;28;20262;-85
2023/03/03 03:30:50;;;;;;;14.30;6.27;;;0.80;99.90;;;;;;5035769;28;20213;-82
2023/03/03 03:33:16;;;;;;;22.87;10.47;;;0.80;99.90;;;;;;5053871;28;20184;-83
2023/03/03 03:35:44;;;;;;;24.87;9.50;;;0.80;99.90;;;;;;5053139;28;20211;-82
2023/03/03 03:38:11;;;;;;;18.93;7.20;;;0.80;99.90;;;;;;5035109;28;20182;-83
2023/03/03 03:40:37;;;;;;;26.63;10.37;;;0.80;99.90;;;;;;5053068;28;20168;-83
2023/03/03 03:43:02;;;;;;;18.10;8.40;;;0.80;99.90;;;;;;5035861;28;20180;-82
2023/03/03 03:45:28;;;;;;;21.80;9.23;;;0.70;99.90;;;;;;5053123;28;20189;-83
2023/03/03 03:47:54;;;;;;;15.23;8.40;;;0.70;99.90;;;;;;5053370;28;20191;-82
2023/03/03 03:50:20;;;;;;;18.57;10.07;;;0.80;99.90;;;;;;5053272;28;20172;-82
2023/03/03 03:52:46;;;;;;;15.80;8.77;;;0.90;99.90;;;;;;5052910;28;20176;-81
2023/03/03 03:55:11;;;;;;;16.63;9.90;;;0.80;99.90;;;;;;5035266;28;20200;-82
2023/03/03 03:57:37;;;;;;;28.67;8.93;;;0.80;99.90;;;;;;5018721;28;20328;-83
2023/03/03 04:00:05;;;;;;;11.10;6.60;;;0.80;99.90;;;;;;5053173;28;20642;-82
2023/03/03 04:02:31;;;;;;;23.03;9.60;;;0.80;99.90;;;;;;5052632;28;20220;-83
2023/03/03 04:04:56;;;;;;;18.87;9.00;;;0.80;99.90;;;;;;5053434;28;20252;-82
2023/03/03 04:07:22;;;;;;;13.17;7.23;;;0.70;99.90;;;;;;5035121;28;20176;-83
2023/03/03 04:09:48;;;;;;;21.37;10.33;;;0.70;99.90;;;;;;5053119;28;20180;-82
2023/03/03 04:12:13;;;;;;;18.70;9.83;;;0.60;99.90;;;;;;5053063;28;20176;-82
2023/03/03 04:14:39;;;;;;;32.33;10.30;;;0.60;99.90;;;;;;5035110;28;20203;-83
2023/03/03 04:17:05;;;;;;;18.03;7.57;;;0.70;99.90;;;;;;5018760;28;20184;-83
2023/03/03 04:19:30;;;;;;;20.50;7.33;;;0.70;99.90;;;;;;5034899;28;20175;-83
2023/03/03 04:21:56;;;;;;;17.60;8.43;;;0.70;99.90;;;;;;5018525;28;20203;-83
2023/03/03 04:24:21;;;;;;;25.03;11.30;;;0.70;99.90;;;;;;5035173;28;20175;-82
2023/03/03 04:26:47;;;;;;;19.80;8.50;;;0.70;99.90;;;;;;5018394;28;20501;-82
2023/03/03 04:29:13;;;;;;;12.10;8.50;;;0.60;99.90;;;;;;5052723;28;20190;-83
2023/03/03 04:31:38;;;;;;;18.13;8.80;;;0.50;99.90;;;;;;5034945;28;20563;-82
2023/03/03 04:34:04;;;;;;;14.57;6.83;;;0.50;99.90;;;;;;5001870;28;20668;-82
2023/03/03 04:36:30;;;;;;;11.10;8.20;;;0.60;99.90;;;;;;5034428;28;20183;-83
2023/03/03 04:38:56;;;;;;;22.10;9.47;;;0.50;99.90;;;;;;5052646;28;20517;-82
2023/03/03 04:41:21;;;;;;;15.40;7.40;;;0.60;99.90;;;;;;5052584;28;20178;-83
2023/03/03 04:43:47;;;;;;;18.47;9.47;;;0.50;99.90;;;;;;5003405;28;20185;-82
2023/03/03 04:46:13;;;;;;;17.83;8.20;;;0.60;99.90;;;;;;5011704;28;20177;-82
2023/03/03 04:48:38;;;;;;;17.07;9.00;;;0.50;99.90;;;;;;5013171;28;20192;-82
2023/03/03 04:51:04;;;;;;;12.33;8.93;;;0.50;99.90;;;;;;5015833;28;20261;-82
2023/03/03 04:53:30;;;;;;;23.83;10.00;;;0.50;99.90;;;;;;5015446;28;20177;-82
2023/03/03 04:55:55;;;;;;;17.93;8.97;;;0.40;99.90;;;;;;5016649;28;20252;-82
2023/03/03 04:58:21;;;;;;;25.13;9.00;;;0.40;99.90;;;;;;5015797;28;20528;-81
2023/03/03 05:00:53;;;;;;;30.77;12.80;;;0.40;99.90;;;;;;4999053;28;20212;-82
2023/03/03 05:03:22;;;;;;;21.73;9.03;;;0.40;99.90;;;;;;5016682;28;20192;-81
2023/03/03 05:05:48;;;;;;;18.10;8.60;;;0.50;99.90;;;;;;4998747;28;20745;-82
2023/03/03 05:08:14;;;;;;;23.13;8.90;;;0.50;99.90;;;;;;5015358;28;20177;-82
2023/03/03 05:10:40;;;;;;;20.33;10.77;;;0.50;99.90;;;;;;5015372;28;20530;-82
2023/03/03 05:13:06;;;;;;;9.97;6.03;;;0.50;99.90;;;;;;4999168;28;20184;-82
2023/03/03 05:15:32;;;;;;;16.97;9.30;;;0.50;99.90;;;;;;5026711;28;20206;-82
2023/03/03 05:17:58;;;;;;;16.37;8.63;;;0.60;99.90;;;;;;5045619;28;20184;-81
2023/03/03 05:20:24;;;;;;;15.13;6.43;;;0.50;99.90;;;;;;5046923;28;20638;-83
2023/03/03 05:22:50;;;;;;;21.47;8.33;;;0.40;99.90;;;;;;5045804;28;20179;-82
2023/03/03 05:25:17;;;;;;;17.33;8.53;;;0.40;99.90;;;;;;5040396;28;20181;-81
2023/03/03 05:27:42;;;;;;;20.07;8.37;;;0.40;99.90;;;;;;5018215;28;20212;-80
2023/03/03 05:30:10;;;;;;;11.37;7.83;;;0.50;99.90;;;;;;5018246;28;20631;-81
2023/03/03 05:32:36;;;;;;;15.53;7.20;;;0.50;99.90;;;;;;5017109;28;20266;-81
2023/03/03 05:35:03;;;;;;;19.53;9.53;;;0.50;99.90;;;;;;5013742;28;20393;-82
2023/03/03 05:37:28;;;;;;;20.43;9.33;;;0.50;99.90;;;;;;5034624;28;20208;-81
2023/03/03 05:39:54;;;;;;;21.87;8.00;;;0.50;99.90;;;;;;5000483;28;20203;-81
2023/03/03 05:42:20;;;;;;;16.57;8.83;;;0.50;99.90;;;;;;5016461;28;20629;-84
2023/03/03 05:44:46;;;;;;;10.33;5.20;;;0.50;99.90;;;;;;5015818;28;20220;-84
2023/03/03 05:47:12;;;;;;;16.53;6.37;;;0.50;99.90;;;;;;5016469;28;20207;-81
2023/03/03 05:49:38;;;;;;;14.70;6.47;;;0.40;99.90;;;;;;4999869;28;20208;-81
2023/03/03 05:52:03;;;;;;;13.07;8.10;;;0.40;99.90;;;;;;5033416;28;20181;-80
2023/03/03 05:54:29;;;;;;;12.87;7.57;;;0.40;99.90;;;;;;5033445;28;20230;-81
2023/03/03 05:56:56;;;;;;;11.67;5.93;;;0.30;99.90;;;;;;5015371;28;20271;-82
2023/03/03 05:59:23;;;;;;;28.13;10.50;;;0.30;99.90;;;;;;5015611;28;20315;-82
2023/03/03 06:01:48;;;;;;;22.60;9.37;;;0.40;99.90;;;;;;5030705;28;20705;-83
2023/03/03 06:04:14;;;;;;;8.70;6.60;;;0.40;99.90;;;;;;4999066;28;20211;-82
2023/03/03 06:06:40;;;;;;;21.30;8.90;;;0.40;99.90;;;;;;5036006;28;20613;-83
2023/03/03 06:09:05;;;;;;;13.53;7.47;;;0.50;99.90;;;;;;5033351;28;20188;-83
2023/03/03 06:11:31;;;;;;;13.57;7.93;;;0.50;99.90;;;;;;5033134;28;20633;-82
2023/03/03 06:13:57;;;;;;;14.73;4.97;;;0.50;99.90;;;;;;5014664;28;20177;-82
2023/03/03 06:16:22;;;;;;;13.37;6.63;;;0.50;99.90;;;;;;4999354;28;20181;-83
2023/03/03 06:18:48;;;;;;;12.13;6.03;;;0.50;99.90;;;;;;5015296;28;20184;-82
2023/03/03 06:21:14;;;;;;;17.93;6.80;;;0.50;99.90;;;;;;5015903;28;20211;-82
2023/03/03 06:23:40;;;;;;;11.97;5.50;;;0.50;99.90;;;;;;5033613;28;20629;-82
2023/03/03 06:26:06;;;;;;;15.73;5.97;;;0.50;99.90;;;;;;5014880;28;20760;-81
2023/03/03 06:28:31;;;;;;;10.13;7.50;;;0.60;99.90;;;;;;5015856;28;20195;-82
2023/03/03 06:30:57;;;;;;;17.03;8.07;;;0.60;99.90;;;;;;4983028;28;20210;-82
2023/03/03 06:33:23;;;;;;;12.00;5.03;;;0.60;99.90;;;;;;5015405;28;20550;-82
2023/03/03 06:35:53;;;;;;;13.33;7.33;;;0.60;99.90;;;;;;5014918;28;20219;-82
2023/03/03 06:38:19;;;;;;;33.00;9.67;;;0.60;99.90;;;;;;5033476;28;20267;-83
2023/03/03 06:40:46;;;;;;;12.07;6.47;;;0.60;99.90;;;;;;5033245;28;20596;-82
2023/03/03 06:43:12;;;;;;;17.20;8.13;;;0.60;99.90;;;;;;5032813;28;20204;-81
2023/03/03 06:45:38;;;;;;;8.17;6.27;;;0.60;99.90;;;;;;5014232;28;20192;-83
2023/03/03 06:48:04;;;;;;;15.50;7.33;;;0.60;99.90;;;;;;4982000;28;20196;-83
2023/03/03 06:50:30;;;;;;;26.03;10.10;;;0.60;99.90;;;;;;5014430;28;20418;-82
2023/03/03 06:53:12;;;;;;;22.57;9.03;;;0.60;99.90;;;;;;5030860;28;20264;-82
2023/03/03 06:55:39;;;;;;;23.33;9.00;;;0.70;99.90;;;;;;5009734;28;20265;-81
2023/03/03 06:58:20;;;;;;;21.17;8.90;;;0.60;99.90;;;;;;5034469;28;20188;-82
2023/03/03 07:01:16;;;;;;;25.07;10.17;;;0.70;99.90;;;;;;5029654;28;20211;-82
2023/03/03 07:03:42;;;;;;;27.90;9.93;;;0.70;99.90;;;;;;5031365;28;20199;-83
2023/03/03 07:06:17;;;;;;;16.57;7.40;;;0.70;99.90;;;;;;4998939;28;20192;-83
2023/03/03 07:08:43;;;;;;;13.57;7.73;;;0.90;99.90;;;;;;5031219;28;20179;-82
2023/03/03 07:11:16;;;;;;;14.57;4.60;;;0.80;99.90;;;;;;5013036;28;20181;-83
2023/03/03 07:13:53;;;;;;;11.60;5.73;;;0.90;99.90;;;;;;5028481;28;20518;-82
2023/03/03 07:16:25;;;;;;;16.33;8.23;;;0.90;99.90;;;;;;5033205;28;20325;-84
2023/03/03 07:18:54;;;;;;;11.53;6.93;;;0.90;99.90;;;;;;5011804;28;20270;-83
2023/03/03 07:21:33;;;;;;;17.00;7.80;;;0.80;99.90;;;;;;5029373;28;20188;-82
2023/03/03 07:24:10;;;;;;;13.20;7.83;;;0.90;99.90;;;;;;5029209;28;20181;-83
2023/03/03 07:26:36;;;;;;;16.87;9.17;;;0.80;99.90;;;;;;5030608;28;20183;-83
2023/03/03 07:29:22;;;;;;;12.90;6.50;;;0.90;99.90;;;;;;5012684;28;20177;-83
2023/03/03 07:31:49;;;;;;;28.50;10.57;;;0.90;99.90;;;;;;5030160;28;20263;-82
2023/03/03 07:34:17;;;;;;;17.87;8.40;;;0.90;99.90;;;;;;5014371;28;20333;-83
2023/03/03 07:36:43;;;;;;;13.03;7.83;;;0.90;99.90;;;;;;5032288;28;20181;-82
2023/03/03 07:39:31;;;;;;;8.23;5.70;;;0.90;99.90;;;;;;5031758;28;20179;-82
2023/03/03 07:42:26;;;;;;;23.47;6.93;;;1.00;99.90;;;;;;5029198;28;20296;-83
2023/03/03 07:44:55;;;;;;;15.50;6.40;;;1.00;99.90;;;;;;5025583;28;20275;-82
2023/03/03 07:47:29;;;;;;;14.07;7.13;;;1.10;99.90;;;;;;5029391;28;20169;-83
2023/03/03 07:49:59;;;;;;;19.43;8.67;;;1.10;99.90;;;;;;5031865;28;20172;-82
2023/03/03 07:52:29;;;;;;;16.63;6.83;;;1.10;99.90;;;;;;5031902;28;20211;-83
2023/03/03 07:54:57;;;;;;;22.67;7.10;;;1.10;99.90;;;;;;5031638;28;20201;-81
2023/03/03 07:57:33;;;;;;;11.43;6.93;;;1.20;99.90;;;;;;5032019;28;20180;-82
2023/03/03 07:59:58;;;;;;;16.30;8.50;;;1.20;99.90;;;;;;5014162;28;20255;-82
2023/03/03 08:02:38;;;;;;;20.67;9.17;;;1.10;99.90;;;;;;5014145;28;20224;-82
2023/03/03 08:05:27;;;;;;;16.00;7.87;;;1.10;99.90;;;;;;5029628;28;20586;-83
2023/03/03 08:08:08;;;;;;;17.00;8.17;;;1.00;99.90;;;;;;5030990;28;20177;-82
2023/03/03 08:10:42;;;;;;;26.47;9.90;;;1.10;99.90;;;;;;5013369;28;20220;-82
2023/03/03 08:13:34;;;;;;;15.90;8.93;;;1.20;99.90;;;;;;5031798;28;20668;-82
2023/03/03 08:16:08;;;;;;;29.27;10.93;;;1.20;99.90;;;;;;5009186;28;20221;-83
2023/03/03 08:18:46;;;;;;;15.87;7.70;;;1.30;99.90;;;;;;5032019;28;20182;-82
2023/03/03 08:21:20;;;;;;;20.70;7.77;;;1.40;99.90;;;;;;5030917;28;20609;-82
2023/03/03 08:23:50;;;;;;;10.87;5.17;;;1.40;99.90;;;;;;5011480;28;20231;-83
2023/03/03 08:26:17;;;;;;;14.27;7.57;;;1.40;99.90;;;;;;5031298;28;20212;-82
2023/03/03 08:28:44;;;;;;;15.53;7.73;;;1.30;99.90;;;;;;5013789;28;20181;-84
2023/03/03 08:31:09;;;;;;;19.50;7.03;;;1.30;99.90;;;;;;5031425;28;20177;-83
2023/03/03 08:33:35;;;;;;;19.77;9.30;;;1.40;99.90;;;;;;5013809;28;20180;-82
2023/03/03 08:36:01;;;;;;;28.37;9.03;;;1.50;99.90;;;;;;5013440;28;20265;-81
2023/03/03 08:38:27;;;;;;;20.63;8.23;;;1.70;99.90;;;;;;5014111;28;20263;-83
2023/03/03 08:40:52;;;;;;;14.80;7.10;;;1.60;99.90;;;;;;4996980;28;20178;-81
2023/03/03 08:43:20;;;;;;;25.40;10.40;;;1.60;99.90;;;;;;5014623;28;20185;-82
2023/03/03 08:45:53;;;;;;;22.00;8.83;;;1.70;99.90;;;;;;4997639;28;20199;-83
2023/03/03 08:48:20;;;;;;;26.30;9.80;;;1.80;99.90;;;;;;5013441;28;20179;-81
2023/03/03 08:50:46;;;;;;;19.83;8.13;;;1.80;99.90;;;;;;5013613;28;20176;-81
2023/03/03 08:53:13;;;;;;;17.87;8.83;;;1.90;99.90;;;;;;5031021;28;20181;-80
2023/03/03 08:55:40;;;;;;;11.70;6.10;;;1.80;99.90;;;;;;5019458;28;20695;-81
2023/03/03 08:58:06;;;;;;;11.70;5.67;;;1.70;99.90;;;;;;5042311;28;20180;-81
2023/03/03 09:00:32;;;;;;;15.30;6.17;;;1.60;99.90;;;;;;5041552;28;20501;-82
2023/03/03 09:02:57;;;;;;;23.27;9.47;;;1.60;99.90;;;;;;5042836;28;20231;-82
2023/03/03 09:05:25;;;;;;;25.20;10.30;;;1.60;99.90;;;;;;5008760;28;20181;-82
2023/03/03 09:07:51;;;;;;;19.37;7.33;;;1.60;99.90;;;;;;5040190;28;20230;-83
2023/03/03 09:10:28;;;;;;;23.13;8.47;;;1.70;99.90;;;;;;5043093;28;20207;-82
2023/03/03 09:12:57;;;;;;;28.17;8.73;;;1.70;99.90;;;;;;5042687;28;20673;-82
2023/03/03 09:15:37;;;;;;;23.53;8.93;;;1.70;99.90;;;;;;5039011;28;20224;-82
2023/03/03 09:18:36;;;;;;;20.40;8.07;;;1.60;99.90;;;;;;5023055;28;20257;-82
2023/03/03 09:21:21;;;;;;;26.47;10.13;;;1.60;99.90;;;;;;5034137;28;20191;-82
2023/03/03 09:23:56;;;;;;;16.10;7.23;;;1.60;99.90;;;;;;5024221;28;20184;-83
2023/03/03 09:26:38;;;;;;;16.87;8.27;;;1.60;99.90;;;;;;5041843;28;20173;-82
2023/03/03 09:29:13;;;;;;;20.97;8.63;;;1.70;99.90;;;;;;5023415;28;20225;-82
2023/03/03 09:31:46;;;;;;;10.60;5.47;;;1.70;99.90;;;;;;5040084;28;20275;-82
2023/03/03 09:34:23;;;;;;;12.23;6.17;;;1.80;99.90;;;;;;5019554;28;20332;-82
2023/03/03 09:36:53;;;;;;;18.07;6.60;;;1.80;99.90;;;;;;5045879;28;20649;-83
2023/03/03 09:39:24;;;;;;;14.40;6.57;;;1.70;99.90;;;;;;5049525;28;20176;-82
2023/03/03 09:42:11;;;;;;;21.17;7.87;;;1.70;99.90;;;;;;5043981;28;20272;-83
2023/03/03 09:45:10;;;;;;;18.17;8.03;;;1.70;99.90;;;;;;5042900;28;20175;-82
2023/03/03 09:47:42;;;;;;;10.10;6.43;;;1.80;99.90;;;;;;5041913;28;20197;-82
2023/03/03 09:50:25;;;;;;;12.80;8.20;;;1.90;99.90;;;;;;5020369;28;20241;-82
2023/03/03 09:53:24;;;;;;;12.23;7.67;;;2.00;99.90;;;;;;5014228;28;20171;-82
2023/03/03 09:56:16;;;;;;;5.90;4.87;;;2.00;99.90;;;;;;5031830;28;20305;-82
2023/03/03 09:58:53;;;;;;;20.60;8.27;;;1.80;99.90;;;;;;5015541;28;20173;-82
2023/03/03 10:01:40;;;;;;;17.10;6.73;;;1.90;99.90;;;;;;5033810;28;20216;-83
2023/03/03 10:04:14;;;;;;;25.17;8.00;;;2.20;99.90;;;;;;5013612;28;20174;-82
2023/03/03 10:07:09;;;;;;;19.37;9.27;;;2.30;99.90;;;;;;5033605;28;20183;-83
2023/03/03 10:09:44;;;;;;;15.43;6.47;;;2.40;99.90;;;;;;5014421;28;20172;-83
2023/03/03 10:12:25;;;;;;;11.60;6.57;;;2.30;99.90;;;;;;5013636;28;20174;-84
2023/03/03 10:15:29;;;;;;;21.23;8.73;;;2.30;99.90;;;;;;5013960;28;20752;-83
2023/03/03 10:18:15;;;;;;;25.53;8.40;;;2.40;99.90;;;;;;5032143;28;20175;-82
2023/03/03 10:20:46;;;;;;;16.33;7.90;;;2.50;99.90;;;;;;5015179;28;20197;-83
2023/03/03 10:23:33;;;;;;;15.57;6.47;;;2.60;99.90;;;;;;5015702;28;20200;-83
2023/03/03 10:26:21;;;;;;;18.97;7.07;;;2.50;99.90;;;;;;5014336;28;20188;-84
2023/03/03 10:28:55;;;;;;;19.37;9.07;;;2.40;99.90;;;;;;5030736;28;20164;-83
2023/03/03 10:31:45;;;;;;;14.70;6.40;;;2.30;99.90;;;;;;5033866;28;20174;-83
2023/03/03 10:34:35;;;;;;;17.93;6.93;;;2.30;99.90;;;;;;5034600;28;20199;-83
2023/03/03 10:37:07;;;;;;;16.30;7.37;;;2.40;99.90;;;;;;5016745;28;20187;-83
2023/03/03 10:39:39;;;;;;;11.93;6.73;;;2.40;99.90;;;;;;5016329;28;20201;-83
2023/03/03 10:42:27;;;;;;;9.43;5.63;;;2.50;99.90;;;;;;5016085;28;20187;-82
2023/03/03 10:45:01;;;;;;;14.13;5.80;;;2.70;99.90;;;;;;5033713;28;20264;-83
2023/03/03 10:47:53;;;;;;;10.33;6.57;;;2.60;99.90;;;;;;5015308;28;20183;-83
2023/03/03 10:50:50;;;;;;;19.33;9.73;;;2.60;99.90;;;;;;5033369;28;20179;-82
2023/03/03 10:53:31;;;;;;;15.37;6.10;;;2.90;99.90;;;;;;5015522;28;20190;-82
2023/03/03 10:56:15;;;;;;;18.50;8.93;;;3.30;99.90;;;;;;5033809;28;20207;-81
2023/03/03 10:58:44;;;;;;;17.37;7.67;;;3.10;99.90;;;;;;5033830;28;20519;-82
2023/03/03 11:01:21;;;;;;;11.93;6.33;;;3.00;99.90;;;;;;5033302;28;20289;-85
2023/03/03 11:03:53;;;;;;;15.47;6.50;;;2.80;99.90;;;;;;5015572;28;20230;-83
2023/03/03 11:06:31;;;;;;;11.50;6.93;;;2.80;99.90;;;;;;5016510;28;20274;-84
2023/03/03 11:09:18;;;;;;;10.60;4.90;;;2.80;99.90;;;;;;5015563;28;20179;-83
2023/03/03 11:12:18;;;;;;;12.50;6.83;;;3.00;99.90;;;;;;5013974;28;20184;-84
2023/03/03 11:15:02;;;;;;;21.40;7.80;;;3.30;99.90;;;;;;5014830;28;20220;-83
2023/03/03 11:17:46;;;;;;;24.90;10.13;;;3.30;99.90;;;;;;5014469;28;20187;-84
2023/03/03 11:20:53;;;;;;;15.03;7.33;;;3.20;99.90;;;;;;5032173;28;20247;-85
2023/03/03 11:24:01;;;;;;;10.20;6.67;;;3.50;99.90;;;;;;5013797;28;20640;-84
2023/03/03 11:26:42;;;;;;;8.20;5.30;;;3.30;99.90;;;;;;5032233;28;20202;-84
2023/03/03 11:29:42;;;;;;;12.60;7.27;;;3.50;99.90;;;;;;5032619;28;20171;-84
2023/03/03 11:32:34;;;;;;;19.10;8.03;;;3.40;99.90;;;;;;5032424;28;20259;-84
2023/03/03 11:35:25;;;;;;;28.03;9.43;;;3.40;99.90;;;;;;4993327;28;20610;-84
2023/03/03 11:38:04;;;;;;;12.00;5.97;;;3.30;99.90;;;;;;5032318;28;20195;-85
2023/03/03 11:40:49;;;;;;;20.57;7.47;;;3.30;99.90;;;;;;5032116;28;20309;-84
2023/03/03 11:43:27;;;;;;;14.30;7.57;;;3.40;99.90;;;;;;5032262;28;20172;-84
2023/03/03 11:46:15;;;;;;;20.87;8.47;;;3.60;99.90;;;;;;5014536;28;20184;-82
2023/03/03 11:48:45;;;;;;;17.07;6.93;;;3.70;99.90;;;;;;5032174;28;20231;-81
2023/03/03 11:51:17;;;;;;;16.73;6.80;;;3.90;99.90;;;;;;5032181;28;20181;-85
2023/03/03 11:53:55;;;;;;;14.17;7.43;;;3.80;99.90;;;;;;5032228;28;20180;-84
2023/03/03 11:56:47;;;;;;;17.50;6.90;;;3.80;99.90;;;;;;5014131;28;20208;-84
2023/03/03 11:59:13;;;;;;;16.80;6.00;;;4.00;99.90;;;;;;5030649;28;20321;-84
2023/03/03 12:01:55;;;;;;;11.20;5.73;;;4.00;99.90;;;;;;5014218;28;20326;-85
2023/03/03 12:04:37;;;;;;;14.57;6.80;;;3.90;99.90;;;;;;5014118;28;20283;-85
2023/03/03 12:07:40;;;;;;;25.53;10.00;;;4.10;99.90;;;;;;5014001;28;20241;-84
2023/03/03 12:10:30;;;;;;;14.10;7.37;;;4.00;99.90;;;;;;5032175;28;20667;-84
2023/03/03 12:13:10;;;;;;;11.47;5.67;;;3.90;99.90;;;;;;5014055;28;20187;-84
2023/03/03 12:15:35;;;;;;;14.40;6.33;;;3.80;99.90;;;;;;5031525;28;20204;-84
2023/03/03 12:18:19;;;;;;;9.57;5.00;;;3.90;99.90;;;;;;5031714;28;20572;-84
2023/03/03 12:21:07;;;;;;;13.23;6.53;;;3.80;99.90;;;;;;5013975;28;20519;-85
2023/03/03 12:23:32;;;;;;;16.23;6.37;;;3.90;99.90;;;;;;5013683;28;20184;-85
2023/03/03 12:26:13;;;;;;;17.30;8.03;;;4.40;99.90;;;;;;5031463;28;20187;-83
2023/03/03 12:28:52;;;;;;;18.40;7.00;;;4.50;99.90;;;;;;5031626;28;20199;-82
2023/03/03 12:31:36;;;;;;;11.40;6.27;;;4.60;99.90;;;;;;5031161;28;20218;-82
2023/03/03 12:34:29;;;;;;;15.47;7.80;;;4.70;99.90;;;;;;5013711;28;20192;-82
2023/03/03 12:37:07;;;;;;;16.00;7.70;;;5.00;99.90;;;;;;5031518;28;20188;-82
2023/03/03 12:40:01;;;;;;;16.43;7.90;;;4.80;99.90;;;;;;5013815;28;20561;-83
2023/03/03 12:42:45;;;;;;;20.70;8.00;;;5.00;99.90;;;;;;5013409;28;20180;-82
2023/03/03 12:45:31;;;;;;;12.90;5.93;;;4.90;99.90;;;;;;5013817;28;20184;-82
2023/03/03 12:48:08;;;;;;;14.20;6.30;;;4.60;99.90;;;;;;5013681;28;20522;-83
2023/03/03 12:51:01;;;;;;;13.50;5.47;;;4.70;99.90;;;;;;5013396;28;20494;-83
2023/03/03 12:54:01;;;;;;;16.63;5.40;;;4.60;99.90;;;;;;5013605;28;20176;-83
2023/03/03 12:56:48;;;;;;;17.73;6.63;;;4.60;99.90;;;;;;5031015;28;20254;-83
2023/03/03 12:59:31;;;;;;;10.30;4.67;;;4.90;99.90;;;;;;5031228;28;20541;-83
2023/03/03 13:02:27;;;;;;;22.30;6.57;;;5.50;99.90;;;;;;5013529;28;20684;-82
2023/03/03 13:05:07;;;;;;;14.53;5.83;;;6.20;99.90;;;;;;5013456;28;20185;-83
2023/03/03 13:07:47;;;;;;;12.37;6.70;;;6.20;99.90;;;;;;5030767;28;20172;-82
2023/03/03 13:10:18;;;;;;;16.07;6.40;;;5.70;99.90;;;;;;5014912;28;20173;-83
2023/03/03 13:13:13;;;;;;;15.43;5.93;;;5.30;99.90;;;;;;5034966;28;20195;-82
2023/03/03 13:15:49;;;;;;;13.13;5.83;;;5.30;99.90;;;;;;4988871;28;20599;-82
2023/03/03 13:18:57;;;;;;;14.33;6.23;;;5.40;99.90;;;;;;5035042;28;20172;-82